Time;durP1;ratioP1;P1;durP2;ratioP2;P2;SDS_P1;SDS_P2;PMS_P1;PMS_P2;Temp;Humidity;BMP_temperature;BMP_pressure;BME280_temperature;BME280_humidity;BME280_pressure;Samples;Min_cycle;Max_cycle;Signal;HPM_P1;HPM_P2
2023/05/05 00:00:54;;;;;;;7.43;1.25;;;;;;;19.26;38.75;98901.59;5092333;28;20100;-47
2023/05/05 00:03:24;;;;;;;6.95;1.60;;;;;;;19.29;38.65;98897.63;5092326;28;20054;-47
2023/05/05 00:05:51;;;;;;;7.45;1.30;;;;;;;19.34;38.53;98906.47;5092011;28;20468;-47
2023/05/05 00:08:17;;;;;;;6.25;1.45;;;;;;;19.28;38.76;98907.47;5092266;28;20024;-47
2023/05/05 00:10:51;;;;;;;3.00;1.00;;;;;;;19.25;38.61;98907.16;5090927;28;20031;-47
2023/05/05 00:13:17;;;;;;;6.45;1.30;;;;;;;19.25;38.84;98913.28;5092061;28;20016;-47
2023/05/05 00:15:45;;;;;;;4.45;1.33;;;;;;;19.30;38.65;98920.53;5092386;28;20390;-47
2023/05/05 00:18:12;;;;;;;8.60;1.92;;;;;;;19.28;39.04;98920.78;5090836;28;20025;-47
2023/05/05 00:20:37;;;;;;;3.97;1.25;;;;;;;19.51;38.75;98918.84;5090763;28;20123;-47
2023/05/05 00:23:03;;;;;;;7.95;1.88;;;;;;;19.67;38.37;98919.78;5092026;28;20169;-47
2023/05/05 00:25:29;;;;;;;5.38;1.63;;;;;;;19.72;38.70;98920.66;5092051;28;20386;-47
2023/05/05 00:27:55;;;;;;;5.35;1.65;;;;;;;19.71;38.29;98918.25;5090659;28;20028;-47
2023/05/05 00:30:21;;;;;;;9.70;2.15;;;;;;;19.71;38.21;98913.72;5090374;28;20036;-47
2023/05/05 00:32:48;;;;;;;5.70;1.88;;;;;;;19.73;38.09;98913.47;5091896;28;20095;-47
2023/05/05 00:35:14;;;;;;;7.30;1.60;;;;;;;19.62;38.68;98912.56;5090539;28;20439;-47
2023/05/05 00:37:40;;;;;;;5.65;1.70;;;;;;;19.48;38.96;98911.38;5091974;28;20052;-46
2023/05/05 00:40:07;;;;;;;8.20;1.90;;;;;;;19.29;39.14;98910.91;5092127;28;20047;-47
2023/05/05 00:42:41;;;;;;;5.43;1.50;;;;;;;19.26;39.42;98898.13;5091841;28;20036;-47
2023/05/05 00:45:08;;;;;;;14.88;3.08;;;;;;;19.33;39.42;98896.06;5091769;28;20025;-47
2023/05/05 00:47:34;;;;;;;17.42;3.15;;;;;;;19.31;39.25;98901.63;5091872;28;20027;-47
2023/05/05 00:50:01;;;;;;;6.70;2.08;;;;;;;19.31;39.14;98900.81;5091670;28;20032;-47
2023/05/05 00:52:27;;;;;;;6.10;2.05;;;;;;;19.39;39.01;98903.03;5091703;28;20039;-47
2023/05/05 00:54:52;;;;;;;7.32;2.28;;;;;;;19.50;38.77;98906.59;5091757;28;20498;-47
2023/05/05 00:57:19;;;;;;;5.22;1.27;;;;;;;19.43;38.66;98898.00;5090382;28;20063;-47
2023/05/05 00:59:45;;;;;;;9.63;1.67;;;;;;;19.28;38.94;98901.34;5091765;28;20572;-47
2023/05/05 01:02:11;;;;;;;7.68;2.05;;;;;;;19.14;39.30;98900.94;5091626;28;20030;-47
2023/05/05 01:04:37;;;;;;;28.02;4.95;;;;;;;19.04;39.74;98903.50;5090394;28;20028;-47
2023/05/05 01:07:27;;;;;;;8.63;2.55;;;;;;;19.04;40.25;98896.31;5091650;28;20074;-47
2023/05/05 01:10:03;;;;;;;10.70;2.38;;;;;;;19.02;40.21;98900.28;5091932;28;20050;-47
2023/05/05 01:12:43;;;;;;;22.38;3.25;;;;;;;18.79;40.58;98893.34;5090309;28;20070;-47
2023/05/05 01:15:30;;;;;;;13.88;2.40;;;;;;;18.69;41.05;98896.69;5091549;28;20111;-47
2023/05/05 01:18:13;;;;;;;17.35;3.53;;;;;;;18.66;40.60;98891.88;5093147;28;20516;-47
2023/05/05 01:21:10;;;;;;;50.70;9.60;;;;;;;18.75;40.73;98893.03;5094143;28;20028;-47
2023/05/05 01:24:13;;;;;;;20.50;5.45;;;;;;;18.90;40.02;98887.91;5095346;28;20016;-47
2023/05/05 01:26:51;;;;;;;10.32;2.00;;;;;;;18.83;39.98;98889.97;5094028;28;20022;-46
2023/05/05 01:29:43;;;;;;;21.50;2.92;;;;;;;18.70;40.47;98885.81;5093874;28;20044;-47
2023/05/05 01:32:11;;;;;;;8.05;2.08;;;;;;;18.63;40.93;98889.69;5071241;28;20039;-47
2023/05/05 01:34:48;;;;;;;12.57;2.53;;;;;;;18.65;41.22;98890.25;5093878;28;20081;-47
2023/05/05 01:37:35;;;;;;;17.85;3.20;;;;;;;18.84;41.06;98883.59;5095090;28;20057;-46
2023/05/05 01:40:05;;;;;;;7.32;2.58;;;;;;;18.90;40.77;98885.25;5093787;28;20056;-47
2023/05/05 01:42:33;;;;;;;8.38;2.30;;;;;;;18.88;40.98;98891.91;5093650;28;20028;-47
2023/05/05 01:45:02;;;;;;;15.15;2.80;;;;;;;18.84;41.47;98896.09;5093952;28;20424;-47
2023/05/05 01:47:29;;;;;;;29.77;5.32;;;;;;;18.86;41.44;98896.66;5093619;28;20044;-47
2023/05/05 01:49:54;;;;;;;16.75;2.83;;;;;;;18.85;40.88;98889.72;5093594;28;20048;-47
2023/05/05 01:52:22;;;;;;;136.85;17.10;;;;;;;18.91;41.45;98897.53;5093540;28;20044;-47
2023/05/05 01:54:51;;;;;;;22.13;3.17;;;;;;;19.03;40.92;98896.56;5093487;28;20032;-47
2023/05/05 01:57:20;;;;;;;12.52;2.90;;;;;;;18.99;41.06;98893.59;5094709;28;20562;-46
2023/05/05 01:59:46;;;;;;;10.05;2.65;;;;;;;18.87;41.57;98885.75;5094667;28;20123;-47
2023/05/05 02:02:13;;;;;;;39.47;5.22;;;;;;;18.90;42.06;98887.91;5094627;28;20019;-47
2023/05/05 02:04:42;;;;;;;30.02;4.30;;;;;;;19.04;42.17;98895.53;5094588;28;20031;-47
2023/05/05 02:07:11;;;;;;;19.63;3.25;;;;;;;18.98;41.94;98886.69;5094507;28;20513;-47
2023/05/05 02:09:38;;;;;;;10.82;2.47;;;;;;;19.02;41.86;98898.44;5094524;28;20385;-47
2023/05/05 02:12:05;;;;;;;16.52;2.30;;;;;;;19.05;41.66;98895.25;5092998;28;20489;-47
2023/05/05 02:14:32;;;;;;;15.57;2.83;;;;;;;18.99;41.58;98888.28;5093090;28;20524;-46
2023/05/05 02:17:00;;;;;;;30.10;4.68;;;;;;;18.99;41.64;98887.47;5093009;28;20026;-47
2023/05/05 02:19:33;;;;;;;180.68;22.73;;;;;;;19.00;42.60;98883.78;5094329;28;20024;-47
2023/05/05 02:21:59;;;;;;;46.90;7.90;;;;;;;19.15;41.98;98879.38;5076091;28;20028;-47
2023/05/05 02:24:25;;;;;;;133.45;16.67;;;;;;;19.25;41.43;98883.22;5092900;28;20023;-47
2023/05/05 02:26:53;;;;;;;36.63;6.05;;;;;;;19.28;40.81;98882.72;5093012;28;20020;-47
2023/05/05 02:29:30;;;;;;;39.40;5.82;;;;;;;19.05;41.90;98887.25;5093512;28;20040;-47
2023/05/05 02:32:05;;;;;;;6.43;2.00;;;;;;;19.02;42.25;98890.44;5093997;28;20028;-47
2023/05/05 02:34:35;;;;;;;11.10;2.58;;;;;;;18.93;42.33;98886.63;5094070;28;20108;-47
2023/05/05 02:37:06;;;;;;;16.15;2.92;;;;;;;18.92;42.37;98872.53;5092672;28;20054;-46
2023/05/05 02:39:46;;;;;;;60.97;7.85;;;;;;;18.79;42.40;98878.22;5093960;28;20493;-47
2023/05/05 02:42:17;;;;;;;57.70;6.70;;;;;;;18.98;41.79;98873.38;5093927;28;20028;-47
2023/05/05 02:44:44;;;;;;;49.00;6.72;;;;;;;19.02;40.83;98871.03;5093894;28;20035;-47
2023/05/05 02:47:10;;;;;;;55.83;6.53;;;;;;;18.91;41.90;98878.09;5093726;28;20016;-47
2023/05/05 02:49:36;;;;;;;72.03;8.18;;;;;;;19.00;41.85;98865.16;5093734;28;20020;-47
2023/05/05 02:52:01;;;;;;;9.85;1.92;;;;;;;18.98;42.85;98869.94;5093528;28;20028;-47
2023/05/05 02:54:27;;;;;;;12.90;2.00;;;;;;;18.89;43.44;98877.53;5092314;28;20397;-47
2023/05/05 02:56:56;;;;;;;11.32;2.10;;;;;;;18.67;43.49;98873.03;5093611;28;20397;-47
2023/05/05 02:59:37;;;;;;;18.85;3.28;;;;;;;18.54;44.46;98873.41;5093573;28;20020;-47
2023/05/05 03:02:42;;;;;;;10.23;2.10;;;;;;;18.50;44.34;98862.44;5092213;28;20028;-46
2023/05/05 03:05:18;;;;;;;11.57;2.17;;;;;;;18.32;44.72;98854.78;5092086;28;20081;-47
2023/05/05 03:08:01;;;;;;;24.77;4.72;;;;;;;18.28;44.78;98861.63;5092188;28;20040;-47
2023/05/05 03:10:38;;;;;;;21.42;2.72;;;;;;;18.16;45.47;98862.53;5093304;28;20024;-47
2023/05/05 03:13:08;;;;;;;5.20;1.88;;;;;;;18.04;45.58;98863.72;5093272;28;20556;-47
2023/05/05 03:15:40;;;;;;;15.23;2.35;;;;;;;17.80;45.92;98863.88;5093206;28;20024;-47
2023/05/05 03:18:09;;;;;;;19.60;3.20;;;;;;;17.68;47.15;98863.94;5093314;28;20035;-47
2023/05/05 03:20:38;;;;;;;19.75;2.60;;;;;;;17.64;46.75;98857.53;5093405;28;20070;-46
2023/05/05 03:23:04;;;;;;;13.65;2.28;;;;;;;17.60;47.25;98856.41;5091787;28;20024;-47
2023/05/05 03:25:42;;;;;;;12.88;2.80;;;;;;;17.58;47.71;98853.97;5092974;28;20039;-47
2023/05/05 03:28:08;;;;;;;9.95;2.47;;;;;;;17.58;47.65;98861.13;5092932;28;20485;-47
2023/05/05 03:30:33;;;;;;;13.65;2.90;;;;;;;17.55;47.59;98851.03;5092752;28;20170;-46
2023/05/05 03:33:00;;;;;;;4.78;1.92;;;;;;;17.44;47.34;98839.44;5092704;28;20513;-46
2023/05/05 03:35:26;;;;;;;8.30;2.10;;;;;;;17.35;47.49;98841.69;5092801;28;20028;-46
2023/05/05 03:37:54;;;;;;;14.77;2.40;;;;;;;17.32;47.88;98842.16;5092788;28;20023;-46
2023/05/05 03:40:20;;;;;;;6.15;2.00;;;;;;;17.37;46.97;98838.81;5092138;28;20027;-47
2023/05/05 03:42:46;;;;;;;6.40;2.03;;;;;;;17.34;46.77;98841.91;5092693;28;20028;-47
2023/05/05 03:45:11;;;;;;;6.50;2.03;;;;;;;17.11;47.56;98837.56;5092662;28;20032;-46
2023/05/05 03:47:37;;;;;;;13.00;3.17;;;;;;;17.02;48.39;98842.44;5092634;28;20035;-47
2023/05/05 03:50:03;;;;;;;12.85;2.17;;;;;;;17.08;48.23;98846.00;5092590;28;20032;-46
2023/05/05 03:52:29;;;;;;;9.27;1.88;;;;;;;17.03;47.66;98845.91;5092501;28;20045;-47
2023/05/05 03:54:55;;;;;;;18.98;2.65;;;;;;;17.07;48.28;98845.19;5092794;28;20030;-47
2023/05/05 03:57:20;;;;;;;6.75;1.83;;;;;;;17.07;48.31;98849.69;5092520;28;20024;-49
2023/05/05 03:59:46;;;;;;;6.07;1.83;;;;;;;16.98;47.75;98838.66;5092455;28;20045;-48
2023/05/05 04:02:12;;;;;;;13.98;2.50;;;;;;;16.97;47.59;98840.50;5092330;28;20028;-48
2023/05/05 04:04:37;;;;;;;8.82;2.35;;;;;;;16.92;48.09;98840.44;5092396;28;20030;-48
2023/05/05 04:07:03;;;;;;;9.18;1.90;;;;;;;16.99;48.21;98839.47;5091305;28;20121;-49
2023/05/05 04:09:28;;;;;;;13.07;2.67;;;;;;;16.88;48.19;98835.81;5091297;28;20032;-49
2023/05/05 04:11:54;;;;;;;12.15;2.33;;;;;;;16.72;48.88;98840.81;5092152;28;20031;-48
2023/05/05 04:14:20;;;;;;;11.90;2.35;;;;;;;16.58;49.08;98835.00;5092159;28;20114;-49
2023/05/05 04:16:45;;;;;;;11.90;2.80;;;;;;;16.52;49.44;98835.94;5092119;28;20448;-49
2023/05/05 04:19:12;;;;;;;21.10;4.95;;;;;;;16.55;49.83;98842.59;5074009;28;20478;-48
2023/05/05 04:21:37;;;;;;;9.70;2.25;;;;;;;16.52;49.77;98838.59;5091093;28;20024;-48
2023/05/05 04:24:03;;;;;;;8.30;2.10;;;;;;;16.70;48.42;98837.63;5090714;28;20581;-49
2023/05/05 04:26:29;;;;;;;16.83;2.92;;;;;;;16.84;47.78;98832.03;5090734;28;20036;-48
2023/05/05 04:28:54;;;;;;;22.55;2.78;;;;;;;17.15;46.83;98828.88;5091996;28;20042;-49
2023/05/05 04:31:20;;;;;;;16.60;3.47;;;;;;;17.29;46.04;98833.91;5090707;28;20058;-49
2023/05/05 04:33:46;;;;;;;67.30;12.00;;;;;;;17.28;46.60;98841.03;5091875;28;20032;-48
2023/05/05 04:36:11;;;;;;;131.68;15.48;;;;;;;17.45;47.29;98834.94;5091929;28;20484;-49
2023/05/05 04:38:37;;;;;;;115.20;14.30;;;;;;;17.67;47.32;98835.81;5091871;28;20390;-48
2023/05/05 04:41:06;;;;;;;52.65;5.78;;;;;;;17.73;46.27;98844.66;5091904;28;20482;-48
2023/05/05 04:43:32;;;;;;;22.75;3.17;;;;;;;17.67;46.43;98850.94;5074098;28;20056;-49
2023/05/05 04:45:57;;;;;;;39.53;3.78;;;;;;;17.54;46.38;98847.53;5091798;28;20047;-48
2023/05/05 04:48:23;;;;;;;45.85;4.82;;;;;;;17.59;46.86;98846.84;5091814;28;20016;-49
2023/05/05 04:50:48;;;;;;;46.72;4.40;;;;;;;17.89;46.41;98849.19;5092934;28;20547;-49
2023/05/05 04:53:14;;;;;;;23.05;4.65;;;;;;;18.27;45.52;98841.41;5095923;28;20107;-49
2023/05/05 04:55:40;;;;;;;29.33;4.18;;;;;;;18.50;44.67;98837.72;5095890;28;20024;-48
2023/05/05 04:58:05;;;;;;;15.18;2.65;;;;;;;18.55;44.40;98840.44;5095906;28;20027;-48
2023/05/05 05:00:31;;;;;;;55.10;7.30;;;;;;;18.66;44.62;98842.16;5095837;28;20051;-48
2023/05/05 05:02:57;;;;;;;7.90;2.38;;;;;;;19.08;43.61;98844.22;5095794;28;20028;-49
2023/05/05 05:05:22;;;;;;;13.15;2.10;;;;;;;19.46;42.87;98836.28;5095746;28;20511;-49
2023/05/05 05:07:48;;;;;;;18.83;3.67;;;;;;;19.76;41.84;98843.72;5095644;28;20027;-48
2023/05/05 05:10:14;;;;;;;7.90;2.42;;;;;;;19.77;41.43;98844.53;5094354;28;20512;-49
2023/05/05 05:12:40;;;;;;;6.03;1.85;;;;;;;19.62;41.23;98846.00;5095583;28;20020;-47
2023/05/05 05:15:06;;;;;;;5.47;2.22;;;;;;;19.58;41.56;98850.22;5094355;28;20025;-47
2023/05/05 05:17:32;;;;;;;10.48;2.10;;;;;;;19.79;41.33;98853.84;5094160;28;20035;-47
2023/05/05 05:20:00;;;;;;;52.47;6.00;;;;;;;19.77;41.70;98852.50;5095474;28;20017;-47
2023/05/05 05:22:26;;;;;;;53.50;5.40;;;;;;;19.97;42.17;98857.97;5095354;28;20486;-46
2023/05/05 05:24:52;;;;;;;49.38;4.55;;;;;;;20.45;41.63;98856.06;5095400;28;20027;-47
2023/05/05 05:27:17;;;;;;;39.70;4.65;;;;;;;20.77;40.17;98857.81;5095246;28;20135;-47
2023/05/05 05:29:43;;;;;;;57.20;5.00;;;;;;;21.39;39.98;98853.34;5093661;28;20545;-47
2023/05/05 05:32:09;;;;;;;38.70;4.47;;;;;;;22.17;38.31;98854.06;5095180;28;20494;-46
2023/05/05 05:34:34;;;;;;;67.03;6.15;;;;;;;22.77;37.99;98856.78;5093864;28;20394;-46
2023/05/05 05:37:00;;;;;;;20.10;3.03;;;;;;;22.95;37.89;98858.81;5095600;28;20389;-47
2023/05/05 05:39:26;;;;;;;20.92;3.33;;;;;;;23.68;36.45;98846.47;5094093;28;20440;-47
2023/05/05 05:41:51;;;;;;;32.80;3.65;;;;;;;24.20;34.86;98844.91;5093740;28;20539;-47
2023/05/05 05:44:17;;;;;;;64.47;5.50;;;;;;;23.92;34.69;98846.53;5093666;28;20054;-47
2023/05/05 05:46:43;;;;;;;36.33;4.22;;;;;;;23.97;34.93;98843.03;5094962;28;20024;-47
2023/05/05 05:49:08;;;;;;;46.53;5.50;;;;;;;23.43;35.14;98842.97;5093589;28;20057;-47
2023/05/05 05:51:34;;;;;;;43.38;4.70;;;;;;;23.03;35.72;98844.06;5093528;28;20405;-47
2023/05/05 05:54:00;;;;;;;32.42;4.35;;;;;;;23.22;35.73;98841.50;5094736;28;20401;-47
2023/05/05 05:56:25;;;;;;;44.95;3.70;;;;;;;24.51;33.92;98848.03;5094771;28;20043;-47
2023/05/05 05:58:51;;;;;;;50.47;4.97;;;;;;;25.59;32.20;98837.59;5093442;28;20080;-46
2023/05/05 06:01:17;;;;;;;65.03;6.38;;;;;;;25.84;31.54;98839.81;5094690;28;20031;-47
2023/05/05 06:03:43;;;;;;;23.30;3.08;;;;;;;25.75;31.67;98838.13;5092437;28;20039;-47
2023/05/05 06:06:08;;;;;;;26.77;3.30;;;;;;;26.13;31.56;98841.47;5094631;28;20032;-47
2023/05/05 06:08:34;;;;;;;49.85;4.85;;;;;;;26.69;31.34;98832.25;5094570;28;20016;-47
2023/05/05 06:11:00;;;;;;;23.83;3.45;;;;;;;28.13;29.79;98842.22;5093117;28;20031;-47
2023/05/05 06:13:25;;;;;;;20.65;2.83;;;;;;;29.69;27.48;98846.06;5093079;28;20060;-47
2023/05/05 06:15:51;;;;;;;23.63;3.97;;;;;;;30.91;25.92;98842.78;5093341;28;20024;-47
2023/05/05 06:18:17;;;;;;;22.42;2.85;;;;;;;31.59;24.96;98841.63;5093039;28;20028;-47
2023/05/05 06:20:42;;;;;;;15.90;2.95;;;;;;;31.57;24.29;98841.19;5094275;28;20111;-47
2023/05/05 06:23:08;;;;;;;76.43;7.07;;;;;;;31.64;24.82;98841.44;5094299;28;20500;-47
2023/05/05 06:25:34;;;;;;;32.72;4.32;;;;;;;31.99;24.29;98844.50;5094148;28;20032;-47
2023/05/05 06:28:00;;;;;;;22.02;3.17;;;;;;;31.28;25.38;98844.81;5092844;28;20132;-47
2023/05/05 06:30:26;;;;;;;13.77;2.88;;;;;;;30.87;25.48;98849.94;5092620;28;20036;-47
2023/05/05 06:32:53;;;;;;;16.92;3.55;;;;;;;30.78;25.53;98852.69;5093907;28;20394;-47
2023/05/05 06:35:19;;;;;;;7.93;1.95;;;;;;;31.19;24.98;98843.00;5093976;28;20027;-47
2023/05/05 06:37:45;;;;;;;9.13;1.98;;;;;;;31.82;24.34;98848.25;5094000;28;20024;-47
2023/05/05 06:40:11;;;;;;;6.38;1.90;;;;;;;32.34;24.12;98844.09;5093897;28;20066;-47
2023/05/05 06:42:37;;;;;;;13.95;2.30;;;;;;;32.93;23.30;98850.09;5092578;28;20039;-47
2023/05/05 06:45:02;;;;;;;16.00;2.50;;;;;;;33.50;22.72;98840.75;5093862;28;20016;-48
2023/05/05 06:47:28;;;;;;;18.33;2.38;;;;;;;33.27;23.15;98840.56;5093830;28;20026;-47
2023/05/05 06:49:54;;;;;;;27.75;3.15;;;;;;;33.29;22.76;98841.00;5092472;28;20020;-47
2023/05/05 06:52:19;;;;;;;10.55;2.33;;;;;;;33.61;22.86;98841.88;5092325;28;20111;-47
2023/05/05 06:54:45;;;;;;;24.38;2.53;;;;;;;33.83;22.20;98840.47;5093665;28;20427;-48
2023/05/05 06:57:10;;;;;;;37.97;3.60;;;;;;;34.32;21.37;98841.22;5093615;28;20016;-48
2023/05/05 06:59:36;;;;;;;17.38;2.28;;;;;;;34.30;20.84;98830.66;5093818;28;20100;-48
2023/05/05 07:02:02;;;;;;;19.85;2.28;;;;;;;33.98;20.65;98825.25;5093552;28;20023;-47
2023/05/05 07:04:27;;;;;;;18.10;2.72;;;;;;;32.77;22.34;98818.19;5093520;28;20066;-48
2023/05/05 07:06:54;;;;;;;18.75;3.47;;;;;;;32.25;21.98;98810.81;5093359;28;20024;-47
2023/05/05 07:09:20;;;;;;;9.38;2.42;;;;;;;32.29;22.47;98808.22;5092097;28;20122;-47
2023/05/05 07:11:45;;;;;;;11.40;2.42;;;;;;;32.67;22.17;98799.66;5091990;28;20115;-47
2023/05/05 07:14:11;;;;;;;11.98;2.22;;;;;;;32.79;21.75;98793.38;5093143;28;20534;-47
2023/05/05 07:16:37;;;;;;;12.00;2.80;;;;;;;32.57;22.14;98790.06;5093500;28;20510;-47
2023/05/05 07:19:06;;;;;;;22.00;2.80;;;;;;;32.86;21.12;98795.50;5093209;28;20028;-48
2023/05/05 07:21:35;;;;;;;7.72;1.98;;;;;;;32.83;20.29;98797.78;5091770;28;20035;-47
2023/05/05 07:24:02;;;;;;;9.55;2.35;;;;;;;32.60;20.13;98797.53;5091823;28;20077;-47
2023/05/05 07:26:28;;;;;;;13.25;2.15;;;;;;;32.69;20.15;98808.25;5092988;28;20107;-47
2023/05/05 07:28:57;;;;;;;15.00;2.70;;;;;;;33.26;19.26;98817.19;5092604;28;20447;-47
2023/05/05 07:31:24;;;;;;;6.05;1.65;;;;;;;33.89;18.49;98835.53;5093060;28;20455;-47
2023/05/05 07:33:50;;;;;;;13.77;2.95;;;;;;;34.41;18.13;98836.38;5091491;28;20028;-48
2023/05/05 07:36:18;;;;;;;6.25;1.30;;;;;;;35.01;17.76;98833.31;5092827;28;20112;-47
2023/05/05 07:38:44;;;;;;;5.05;1.00;;;;;;;34.57;17.46;98828.13;5092800;28;20051;-47
2023/05/05 07:41:11;;;;;;;5.85;1.55;;;;;;;34.14;18.03;98829.91;5091460;28;20116;-47
2023/05/05 07:43:40;;;;;;;7.78;1.17;;;;;;;34.08;18.95;98829.34;5092760;28;20032;-48
2023/05/05 07:46:06;;;;;;;4.03;0.90;;;;;;;33.95;18.34;98833.34;5091370;28;20032;-47
2023/05/05 07:48:31;;;;;;;2.38;0.90;;;;;;;34.07;18.11;98827.78;5092646;28;20562;-47
2023/05/05 07:50:57;;;;;;;9.32;1.60;;;;;;;33.90;17.77;98826.22;5092597;28;20028;-47
2023/05/05 07:53:23;;;;;;;3.15;1.02;;;;;;;33.39;18.34;98823.38;5091159;28;20036;-47
2023/05/05 07:55:48;;;;;;;4.80;1.00;;;;;;;33.00;18.69;98820.38;5092462;28;20024;-47
2023/05/05 07:58:15;;;;;;;10.60;1.10;;;;;;;33.02;19.35;98820.81;5092485;28;20064;-47
2023/05/05 08:00:42;;;;;;;5.40;1.20;;;;;;;33.21;19.17;98823.69;5091113;28;20069;-47
2023/05/05 08:03:08;;;;;;;5.03;1.15;;;;;;;32.90;19.12;98815.41;5092588;28;20042;-48
2023/05/05 08:05:34;;;;;;;8.45;1.42;;;;;;;32.41;19.32;98806.25;5092298;28;20046;-47
2023/05/05 08:08:00;;;;;;;4.90;1.13;;;;;;;32.02;20.04;98803.16;5092367;28;20034;-47
2023/05/05 08:10:27;;;;;;;3.38;1.30;;;;;;;31.52;20.23;98812.38;5092189;28;20024;-47
2023/05/05 08:12:53;;;;;;;2.42;1.00;;;;;;;31.06;20.69;98809.59;5092165;28;20048;-47
2023/05/05 08:15:19;;;;;;;3.30;1.13;;;;;;;31.22;21.27;98807.06;5090849;28;20025;-47
2023/05/05 08:17:50;;;;;;;5.35;1.02;;;;;;;31.37;21.05;98805.66;5092410;28;20020;-47
2023/05/05 08:20:18;;;;;;;6.20;1.35;;;;;;;31.20;20.74;98808.53;5090935;28;20099;-47
2023/05/05 08:22:44;;;;;;;9.50;1.60;;;;;;;31.15;20.70;98800.59;5090732;28;20040;-47
2023/05/05 08:25:11;;;;;;;8.98;1.55;;;;;;;31.34;21.02;98795.44;5091564;28;20028;-47
2023/05/05 08:27:41;;;;;;;25.83;2.83;;;;;;;31.97;20.47;98794.41;5074091;28;20023;-47
2023/05/05 08:30:08;;;;;;;20.25;2.70;;;;;;;32.78;19.81;98775.47;5091770;28;20123;-48
2023/05/05 08:32:33;;;;;;;3.92;1.48;;;;;;;33.31;18.87;98778.88;5090621;28;20386;-48
2023/05/05 08:35:04;;;;;;;4.75;1.27;;;;;;;33.71;19.20;98769.00;5090764;28;20081;-48
2023/05/05 08:37:30;;;;;;;3.97;1.42;;;;;;;34.01;18.50;98772.03;5092215;28;20024;-48
2023/05/05 08:39:56;;;;;;;14.50;2.08;;;;;;;33.87;19.53;98783.38;5073921;28;20082;-48
2023/05/05 08:42:22;;;;;;;11.88;1.95;;;;;;;33.68;18.62;98792.25;5091828;28;20051;-47
2023/05/05 08:44:48;;;;;;;12.43;2.80;;;;;;;33.54;18.98;98806.25;5090720;28;20024;-47
2023/05/05 08:47:15;;;;;;;2.83;1.13;;;;;;;33.14;19.29;98804.47;5091939;28;20051;-48
2023/05/05 08:49:45;;;;;;;11.25;5.30;;;;;;;32.97;19.28;98807.47;5091780;28;20036;-48
2023/05/05 08:52:21;;;;;;;6.63;2.53;;;;;;;33.30;19.93;98803.69;5090474;28;20035;-47
2023/05/05 08:54:56;;;;;;;6.72;2.75;;;;;;;33.96;19.13;98800.28;5091820;28;20028;-48
2023/05/05 08:57:31;;;;;;;7.47;1.65;;;;;;;34.69;18.24;98799.97;5091809;28;20031;-47
2023/05/05 08:59:58;;;;;;;8.02;1.58;;;;;;;35.84;17.46;98804.78;5091835;28;20031;-47
2023/05/05 09:02:27;;;;;;;6.97;1.90;;;;;;;36.63;16.78;98803.19;5091683;28;20482;-48
2023/05/05 09:04:53;;;;;;;7.85;1.58;;;;;;;37.06;16.77;98809.16;5091649;28;20069;-48
2023/05/05 09:07:19;;;;;;;5.30;0.90;;;;;;;36.36;16.35;98804.00;5091665;28;20024;-48
2023/05/05 09:09:45;;;;;;;6.55;2.28;;;;;;;35.71;17.72;98809.66;5090262;28;20039;-47
2023/05/05 09:12:10;;;;;;;6.53;1.25;;;;;;;36.66;16.92;98818.84;5090261;28;20028;-48
2023/05/05 09:14:36;;;;;;;8.45;1.73;;;;;;;37.10;16.09;98802.53;5091568;28;20107;-50
2023/05/05 09:17:02;;;;;;;4.85;1.20;;;;;;;37.27;16.54;98803.91;5090265;28;20059;-50
2023/05/05 09:19:28;;;;;;;5.65;1.15;;;;;;;37.52;16.00;98812.34;5091546;28;20511;-50
2023/05/05 09:21:54;;;;;;;7.30;1.38;;;;;;;37.83;16.12;98815.75;5090134;28;20048;-50
2023/05/05 09:24:20;;;;;;;6.20;1.60;;;;;;;38.55;14.97;98816.22;5091489;28;20028;-50
2023/05/05 09:26:47;;;;;;;7.65;3.72;;;;;;;38.38;14.60;98808.69;5091473;28;20138;-50
2023/05/05 09:29:20;;;;;;;16.55;12.07;;;;;;;38.31;14.59;98809.41;5091152;28;20054;-50
2023/05/05 09:32:07;;;;;;;14.40;5.47;;;;;;;38.47;15.26;98809.09;5091454;28;20032;-50
2023/05/05 09:34:36;;;;;;;2.83;1.17;;;;;;;38.43;15.13;98816.53;5091346;28;20039;-50
2023/05/05 09:37:05;;;;;;;27.40;2.67;;;;;;;38.69;14.55;98813.53;5091284;28;20032;-50
2023/05/05 09:39:30;;;;;;;5.68;1.65;;;;;;;39.45;14.50;98805.50;5093672;28;20028;-50
2023/05/05 09:41:57;;;;;;;5.18;1.25;;;;;;;40.29;13.71;98794.81;5076922;28;20035;-50
2023/05/05 09:44:34;;;;;;;4.82;1.98;;;;;;;39.53;13.92;98805.09;5093759;28;20031;-50
2023/05/05 09:47:00;;;;;;;3.03;0.95;;;;;;;39.01;14.06;98809.34;5095053;28;20032;-50
2023/05/05 09:49:26;;;;;;;7.25;1.33;;;;;;;38.78;14.01;98809.63;5093629;28;20496;-50
2023/05/05 09:51:52;;;;;;;5.47;1.70;;;;;;;38.40;14.25;98798.91;5093580;28;20115;-50
2023/05/05 09:54:28;;;;;;;4.18;1.15;;;;;;;38.10;14.42;98799.13;5094753;28;20093;-50
2023/05/05 09:56:55;;;;;;;11.13;1.17;;;;;;;37.15;14.34;98796.75;5094758;28;20028;-50
2023/05/05 09:59:22;;;;;;;6.25;1.20;;;;;;;36.48;15.51;98791.25;5093705;28;20021;-50
2023/05/05 10:01:50;;;;;;;5.95;1.30;;;;;;;36.54;15.23;98806.19;5094614;28;20129;-50
2023/05/05 10:04:23;;;;;;;10.93;1.55;;;;;;;36.46;15.43;98790.84;5094709;28;20032;-50
2023/05/05 10:06:49;;;;;;;;;;;;;;;36.95;15.17;98795.38;5093716;28;20039;-50
2023/05/05 10:09:15;;;;;;;3.88;0.80;;;;;;;36.39;14.86;98792.31;5094518;28;19912;-50
2023/05/05 10:11:41;;;;;;;2.80;1.10;;;;;;;35.69;15.70;98796.38;5094507;28;20401;-50
2023/05/05 10:14:07;;;;;;;3.58;1.10;;;;;;;35.54;15.86;98792.59;5094414;28;20032;-48
2023/05/05 10:16:34;;;;;;;8.32;1.33;;;;;;;35.37;15.66;98793.84;5094446;28;20032;-48
2023/05/05 10:19:03;;;;;;;6.88;1.08;;;;;;;35.00;15.61;98802.53;5094386;28;20493;-48
2023/05/05 10:21:33;;;;;;;8.75;1.75;;;;;;;34.85;16.61;98797.16;5094623;28;20428;-48
2023/05/05 10:24:21;;;;;;;10.73;1.60;;;;;;;35.22;16.10;98794.78;5094290;28;20032;-48
2023/05/05 10:26:48;;;;;;;5.40;1.20;;;;;;;35.66;15.74;98790.84;5092999;28;20035;-48
2023/05/05 10:29:49;;;;;;;5.25;1.33;;;;;;;35.35;15.52;98787.19;5092591;28;20048;-48
2023/05/05 10:32:39;;;;;;;5.55;1.33;;;;;;;35.56;15.62;98786.78;5074061;28;20047;-48
2023/05/05 10:35:08;;;;;;;4.95;1.05;;;;;;;35.95;15.55;98784.66;5092803;28;20528;-48
2023/05/05 10:37:36;;;;;;;8.55;1.52;;;;;;;36.47;15.69;98773.28;5092698;28;20074;-48
2023/05/05 10:40:03;;;;;;;9.05;1.67;;;;;;;36.41;15.28;98774.78;5092656;28;20027;-48
2023/05/05 10:42:30;;;;;;;8.55;1.20;;;;;;;35.97;15.18;98774.16;5094070;28;20027;-48
2023/05/05 10:44:56;;;;;;;6.38;1.00;;;;;;;35.60;15.66;98768.50;5093796;28;20107;-49
2023/05/05 10:47:23;;;;;;;6.47;1.10;;;;;;;35.54;15.43;98751.66;5092570;28;20103;-47
2023/05/05 10:50:15;;;;;;;2.50;1.00;;;;;;;35.17;15.83;98754.13;5093357;28;20117;-48
2023/05/05 10:52:55;;;;;;;3.92;0.98;;;;;;;35.54;15.34;98740.72;5093711;28;20028;-47
2023/05/05 10:55:37;;;;;;;5.43;1.25;;;;;;;35.93;15.22;98742.50;5093745;28;20032;-48
2023/05/05 10:58:03;;;;;;;6.50;1.00;;;;;;;35.92;14.89;98738.16;5093714;28;20028;-48
2023/05/05 11:00:37;;;;;;;8.23;1.55;;;;;;;35.65;14.70;98751.03;5092249;28;20402;-48
2023/05/05 11:03:32;;;;;;;10.82;1.40;;;;;;;35.12;14.95;98744.28;5093459;28;20028;-48
2023/05/05 11:06:06;;;;;;;4.20;1.00;;;;;;;34.94;15.02;98748.66;5080198;28;20043;-48
2023/05/05 11:08:40;;;;;;;3.47;1.00;;;;;;;34.29;15.65;98757.44;5093423;28;20371;-47
2023/05/05 11:11:06;;;;;;;12.68;2.92;;;;;;;33.93;15.90;98743.84;5092122;28;20035;-48
2023/05/05 11:13:32;;;;;;;169.52;24.70;;;;;;;33.85;16.31;98747.53;5093247;28;20027;-48
2023/05/05 11:16:00;;;;;;;221.80;31.75;;;;;;;33.91;16.46;98737.94;5091875;28;20016;-48
2023/05/05 11:18:37;;;;;;;56.40;10.43;;;;;;;33.46;15.87;98750.06;5093193;28;20047;-48
2023/05/05 11:21:14;;;;;;;29.58;4.88;;;;;;;33.27;16.67;98736.41;5091833;28;20031;-48
2023/05/05 11:23:43;;;;;;;12.77;2.00;;;;;;;33.65;15.95;98727.63;5091924;28;20062;-48
2023/05/05 11:26:10;;;;;;;113.05;17.40;;;;;;;33.29;16.55;98732.19;5093009;28;20107;-48
2023/05/05 11:29:03;;;;;;;13.40;2.63;;;;;;;33.62;15.63;98740.03;5092851;28;20024;-49
2023/05/05 11:31:30;;;;;;;22.60;3.40;;;;;;;33.09;16.78;98727.78;5091686;28;20513;-48
2023/05/05 11:34:27;;;;;;;19.52;3.90;;;;;;;33.15;16.62;98732.63;5091555;28;20032;-48
2023/05/05 11:37:00;;;;;;;41.70;6.63;;;;;;;33.46;16.42;98725.59;5092767;28;20032;-48